sensor_id;sensor_type;location;lat;lon;timestamp;pressure;altitude;pressure_sealevel;temperature;humidity
53390;BME280;39288;42.970;1.524;2024-01-16T00:00:57;94971.56;;;6.59;100.00
53390;BME280;39288;42.970;1.524;2024-01-16T00:01:58;94975.16;;;6.49;100.00
53390;BME280;39288;42.970;1.524;2024-01-16T00:02:58;94978.19;;;6.43;100.00
53390;BME280;39288;42.970;1.524;2024-01-16T00:03:59;94975.84;;;6.41;100.00
53390;BME280;39288;42.970;1.524;2024-01-16T00:04:59;94968.94;;;6.26;100.00
53390;BME280;39288;42.970;1.524;2024-01-16T00:06:00;94972.59;;;6.12;100.00
53390;BME280;39288;42.970;1.524;2024-01-16T00:07:01;94976.91;;;6.08;100.00
53390;BME280;39288;42.970;1.524;2024-01-16T00:08:01;94979.31;;;6.04;100.00
53390;BME280;39288;42.970;1.524;2024-01-16T00:09:02;94979.59;;;6.03;100.00
53390;BME280;39288;42.970;1.524;2024-01-16T00:10:04;94980.47;;;6.17;100.00
53390;BME280;39288;42.970;1.524;2024-01-16T00:11:04;94970.31;;;6.24;100.00
53390;BME280;39288;42.970;1.524;2024-01-16T00:12:05;94973.59;;;6.16;100.00
53390;BME280;39288;42.970;1.524;2024-01-16T00:13:06;94986.38;;;6.27;100.00
53390;BME280;39288;42.970;1.524;2024-01-16T00:14:06;94972.28;;;6.32;100.00
53390;BME280;39288;42.970;1.524;2024-01-16T00:15:07;94991.59;;;6.33;100.00
53390;BME280;39288;42.970;1.524;2024-01-16T00:16:09;94991.88;;;6.31;100.00
53390;BME280;39288;42.970;1.524;2024-01-16T00:17:09;94985.56;;;6.46;100.00
53390;BME280;39288;42.970;1.524;2024-01-16T00:18:09;94990.41;;;6.57;100.00
53390;BME280;39288;42.970;1.524;2024-01-16T00:19:10;94991.88;;;6.31;100.00
53390;BME280;39288;42.970;1.524;2024-01-16T00:20:11;94976.59;;;5.90;100.00
53390;BME280;39288;42.970;1.524;2024-01-16T00:21:12;94982.84;;;5.57;100.00
53390;BME280;39288;42.970;1.524;2024-01-16T00:22:12;94981.16;;;5.66;100.00
53390;BME280;39288;42.970;1.524;2024-01-16T00:23:13;94983.66;;;5.76;100.00
53390;BME280;39288;42.970;1.524;2024-01-16T00:24:14;94987.59;;;5.79;100.00
53390;BME280;39288;42.970;1.524;2024-01-16T00:25:14;94983.28;;;5.83;100.00
53390;BME280;39288;42.970;1.524;2024-01-16T00:26:21;94977.88;;;6.12;100.00
53390;BME280;39288;42.970;1.524;2024-01-16T00:27:22;94983.16;;;6.12;100.00
53390;BME280;39288;42.970;1.524;2024-01-16T00:28:22;94983.00;;;6.22;100.00
53390;BME280;39288;42.970;1.524;2024-01-16T00:29:23;94985.09;;;6.25;100.00
53390;BME280;39288;42.970;1.524;2024-01-16T00:30:23;94979.59;;;6.03;100.00
53390;BME280;39288;42.970;1.524;2024-01-16T00:31:24;94984.31;;;6.06;100.00
53390;BME280;39288;42.970;1.524;2024-01-16T00:32:24;94972.88;;;6.10;100.00
53390;BME280;39288;42.970;1.524;2024-01-16T00:33:25;94973.09;;;6.14;100.00
53390;BME280;39288;42.970;1.524;2024-01-16T00:34:27;94973.59;;;6.16;100.00
53390;BME280;39288;42.970;1.524;2024-01-16T00:35:27;94974.47;;;5.92;100.00
53390;BME280;39288;42.970;1.524;2024-01-16T00:36:28;94975.34;;;5.88;100.00
53390;BME280;39288;42.970;1.524;2024-01-16T00:37:28;94973.81;;;6.01;100.00
53390;BME280;39288;42.970;1.524;2024-01-16T00:38:28;94982.75;;;6.05;100.00
53390;BME280;39288;42.970;1.524;2024-01-16T00:39:29;94971.09;;;6.06;100.00
53390;BME280;39288;42.970;1.524;2024-01-16T00:40:29;94973.00;;;6.19;100.00
53390;BME280;39288;42.970;1.524;2024-01-16T00:41:30;94967.56;;;6.29;100.00
53390;BME280;39288;42.970;1.524;2024-01-16T00:42:31;94975.59;;;6.24;100.00
53390;BME280;39288;42.970;1.524;2024-01-16T00:43:32;94964.44;;;6.27;100.00
53390;BME280;39288;42.970;1.524;2024-01-16T00:44:33;94966.00;;;6.28;100.00
53390;BME280;39288;42.970;1.524;2024-01-16T00:45:34;94968.72;;;6.23;100.00
53390;BME280;39288;42.970;1.524;2024-01-16T00:46:35;94967.91;;;6.09;100.00
53390;BME280;39288;42.970;1.524;2024-01-16T00:47:35;94966.25;;;5.94;100.00
53390;BME280;39288;42.970;1.524;2024-01-16T00:48:35;94966.47;;;5.98;100.00
53390;BME280;39288;42.970;1.524;2024-01-16T00:49:36;94971.16;;;6.01;100.00
53390;BME280;39288;42.970;1.524;2024-01-16T00:50:37;94972.19;;;6.05;100.00
53390;BME280;39288;42.970;1.524;2024-01-16T00:51:37;94972.19;;;6.05;100.00
53390;BME280;39288;42.970;1.524;2024-01-16T00:52:38;94971.81;;;6.11;100.00
53390;BME280;39288;42.970;1.524;2024-01-16T00:53:42;94970.97;;;6.16;100.00
53390;BME280;39288;42.970;1.524;2024-01-16T00:54:43;94979.31;;;6.23;100.00
53390;BME280;39288;42.970;1.524;2024-01-16T00:55:43;94973.94;;;6.28;100.00
53390;BME280;39288;42.970;1.524;2024-01-16T00:56:44;94970.72;;;6.31;100.00
53390;BME280;39288;42.970;1.524;2024-01-16T00:57:44;94971.47;;;6.18;100.00
53390;BME280;39288;42.970;1.524;2024-01-16T00:58:45;94961.50;;;6.10;100.00
53390;BME280;39288;42.970;1.524;2024-01-16T00:59:46;94965.66;;;6.16;100.00
53390;BME280;39288;42.970;1.524;2024-01-16T01:00:46;94966.81;;;6.10;100.00
53390;BME280;39288;42.970;1.524;2024-01-16T01:01:46;94964.75;;;6.07;100.00
53390;BME280;39288;42.970;1.524;2024-01-16T01:02:47;94974.44;;;6.11;100.00
53390;BME280;39288;42.970;1.524;2024-01-16T01:03:47;94975.25;;;6.12;100.00
53390;BME280;39288;42.970;1.524;2024-01-16T01:04:47;94973.94;;;6.09;100.00
53390;BME280;39288;42.970;1.524;2024-01-16T01:05:48;94984.97;;;5.98;100.00
53390;BME280;39288;42.970;1.524;2024-01-16T01:06:48;94977.84;;;5.98;100.00
53390;BME280;39288;42.970;1.524;2024-01-16T01:07:49;94977.97;;;6.07;100.00
53390;BME280;39288;42.970;1.524;2024-01-16T01:08:50;94978.88;;;6.16;100.00
53390;BME280;39288;42.970;1.524;2024-01-16T01:09:51;94987.38;;;6.13;100.00
53390;BME280;39288;42.970;1.524;2024-01-16T01:10:51;94987.88;;;6.15;100.00
53390;BME280;39288;42.970;1.524;2024-01-16T01:11:52;94997.25;;;6.07;100.00
53390;BME280;39288;42.970;1.524;2024-01-16T01:12:52;94990.91;;;6.08;100.00
53390;BME280;39288;42.970;1.524;2024-01-16T01:13:55;94992.75;;;6.08;100.00
53390;BME280;39288;42.970;1.524;2024-01-16T01:14:56;94988.81;;;6.05;100.00
53390;BME280;39288;42.970;1.524;2024-01-16T01:15:56;94979.59;;;6.03;100.00
53390;BME280;39288;42.970;1.524;2024-01-16T01:16:57;94983.31;;;6.02;100.00
53390;BME280;39288;42.970;1.524;2024-01-16T01:17:58;94978.28;;;6.19;100.00
53390;BME280;39288;42.970;1.524;2024-01-16T01:18:58;94973.59;;;6.16;100.00
53390;BME280;39288;42.970;1.524;2024-01-16T01:19:59;94979.88;;;6.01;100.00
53390;BME280;39288;42.970;1.524;2024-01-16T01:20:59;94976.75;;;5.99;100.00
53390;BME280;39288;42.970;1.524;2024-01-16T01:21:59;94985.44;;;6.00;100.00
53390;BME280;39288;42.970;1.524;2024-01-16T01:23:00;94992.09;;;5.78;100.00
53390;BME280;39288;42.970;1.524;2024-01-16T01:24:00;94992.34;;;5.58;100.00
53390;BME280;39288;42.970;1.524;2024-01-16T01:25:00;94993.06;;;5.64;100.00
53390;BME280;39288;42.970;1.524;2024-01-16T01:26:01;94987.13;;;5.96;100.00
53390;BME280;39288;42.970;1.524;2024-01-16T01:27:01;94990.31;;;5.92;100.00
53390;BME280;39288;42.970;1.524;2024-01-16T01:28:02;94982.44;;;5.87;100.00
53390;BME280;39288;42.970;1.524;2024-01-16T01:29:02;94979.75;;;5.92;100.00
53390;BME280;39288;42.970;1.524;2024-01-16T01:30:03;94989.88;;;5.85;100.00
53390;BME280;39288;42.970;1.524;2024-01-16T01:31:04;94989.19;;;5.99;100.00
53390;BME280;39288;42.970;1.524;2024-01-16T01:32:04;94982.75;;;6.05;100.00
53390;BME280;39288;42.970;1.524;2024-01-16T01:33:05;94983.47;;;5.91;100.00
53390;BME280;39288;42.970;1.524;2024-01-16T01:34:05;94984.88;;;6.03;100.00
53390;BME280;39288;42.970;1.524;2024-01-16T01:35:07;94988.47;;;6.12;100.00
53390;BME280;39288;42.970;1.524;2024-01-16T01:36:07;94981.41;;;6.07;100.00
53390;BME280;39288;42.970;1.524;2024-01-16T01:37:08;94992.16;;;6.11;100.00
53390;BME280;39288;42.970;1.524;2024-01-16T01:38:08;94989.81;;;6.09;100.00
53390;BME280;39288;42.970;1.524;2024-01-16T01:39:09;94984.25;;;6.11;100.00
53390;BME280;39288;42.970;1.524;2024-01-16T01:40:11;94987.88;;;6.15;100.00
53390;BME280;39288;42.970;1.524;2024-01-16T01:41:12;94982.38;;;6.11;100.00
53390;BME280;39288;42.970;1.524;2024-01-16T01:42:15;94993.25;;;6.10;100.00
53390;BME280;39288;42.970;1.524;2024-01-16T01:43:23;94997.91;;;6.18;100.00
53390;BME280;39288;42.970;1.524;2024-01-16T01:44:24;95001.03;;;6.20;100.00
53390;BME280;39288;42.970;1.524;2024-01-16T01:45:25;94998.47;;;6.15;100.00
53390;BME280;39288;42.970;1.524;2024-01-16T01:46:25;95007.56;;;6.09;100.00
53390;BME280;39288;42.970;1.524;2024-01-16T01:47:26;95004.13;;;6.08;100.00
53390;BME280;39288;42.970;1.524;2024-01-16T01:48:27;95003.91;;;6.05;100.00
53390;BME280;39288;42.970;1.524;2024-01-16T01:49:28;95017.16;;;6.00;100.00
53390;BME280;39288;42.970;1.524;2024-01-16T01:50:28;95017.50;;;5.50;100.00
53390;BME280;39288;42.970;1.524;2024-01-16T01:51:29;95019.84;;;5.57;100.00
53390;BME280;39288;42.970;1.524;2024-01-16T01:52:31;95018.06;;;5.71;100.00
53390;BME280;39288;42.970;1.524;2024-01-16T01:53:33;95009.00;;;5.77;100.00
53390;BME280;39288;42.970;1.524;2024-01-16T01:54:37;95011.56;;;6.06;100.00
53390;BME280;39288;42.970;1.524;2024-01-16T01:55:38;95012.91;;;5.61;100.00
53390;BME280;39288;42.970;1.524;2024-01-16T01:56:39;95008.63;;;5.65;100.00
53390;BME280;39288;42.970;1.524;2024-01-16T01:57:40;95012.84;;;5.66;100.00
53390;BME280;39288;42.970;1.524;2024-01-16T01:58:44;95010.63;;;5.31;100.00
53390;BME280;39288;42.970;1.524;2024-01-16T01:59:45;95008.72;;;5.12;100.00
53390;BME280;39288;42.970;1.524;2024-01-16T02:00:46;95009.75;;;5.59;100.00
53390;BME280;39288;42.970;1.524;2024-01-16T02:01:47;95013.03;;;5.70;100.00
53390;BME280;39288;42.970;1.524;2024-01-16T02:02:48;95016.91;;;5.35;100.00
53390;BME280;39288;42.970;1.524;2024-01-16T02:03:50;95009.63;;;5.27;100.00
53390;BME280;39288;42.970;1.524;2024-01-16T02:04:51;95009.50;;;5.37;100.00
53390;BME280;39288;42.970;1.524;2024-01-16T02:05:52;95014.19;;;5.40;100.00
53390;BME280;39288;42.970;1.524;2024-01-16T02:06:53;95012.59;;;5.44;100.00
53390;BME280;39288;42.970;1.524;2024-01-16T02:07:54;95010.84;;;5.58;100.00
53390;BME280;39288;42.970;1.524;2024-01-16T02:08:54;95003.72;;;5.59;100.00
53390;BME280;39288;42.970;1.524;2024-01-16T02:09:55;95015.09;;;5.54;100.00
53390;BME280;39288;42.970;1.524;2024-01-16T02:10:55;95006.13;;;5.55;100.00
53390;BME280;39288;42.970;1.524;2024-01-16T02:11:55;95015.22;;;5.44;100.00
53390;BME280;39288;42.970;1.524;2024-01-16T02:12:56;95008.81;;;5.50;100.00
53390;BME280;39288;42.970;1.524;2024-01-16T02:13:56;95009.09;;;5.25;100.00
53390;BME280;39288;42.970;1.524;2024-01-16T02:14:57;95018.28;;;5.08;100.00
53390;BME280;39288;42.970;1.524;2024-01-16T02:15:57;95012.25;;;5.03;100.00
53390;BME280;39288;42.970;1.524;2024-01-16T02:16:58;95008.81;;;5.02;100.00
53390;BME280;39288;42.970;1.524;2024-01-16T02:17:58;95002.56;;;4.93;100.00
53390;BME280;39288;42.970;1.524;2024-01-16T02:18:58;94999.72;;;5.13;100.00
53390;BME280;39288;42.970;1.524;2024-01-16T02:19:59;95002.66;;;5.36;100.00
53390;BME280;39288;42.970;1.524;2024-01-16T02:21:00;95007.38;;;5.39;100.00
53390;BME280;39288;42.970;1.524;2024-01-16T02:22:09;95006.16;;;5.50;100.00
53390;BME280;39288;42.970;1.524;2024-01-16T02:23:13;95000.56;;;5.56;100.00
53390;BME280;39288;42.970;1.524;2024-01-16T02:24:15;94999.75;;;5.56;100.00
53390;BME280;39288;42.970;1.524;2024-01-16T02:25:17;94999.88;;;5.46;100.00
53390;BME280;39288;42.970;1.524;2024-01-16T02:26:18;95006.00;;;5.41;100.00
53390;BME280;39288;42.970;1.524;2024-01-16T02:27:19;95009.38;;;5.47;100.00
53390;BME280;39288;42.970;1.524;2024-01-16T02:28:19;95002.19;;;5.52;100.00
53390;BME280;39288;42.970;1.524;2024-01-16T02:29:20;94998.19;;;5.55;100.00
53390;BME280;39288;42.970;1.524;2024-01-16T02:30:20;95000.31;;;5.53;100.00
53390;BME280;39288;42.970;1.524;2024-01-16T02:31:20;95003.78;;;5.72;100.00
53390;BME280;39288;42.970;1.524;2024-01-16T02:32:21;94994.34;;;5.47;100.00
53390;BME280;39288;42.970;1.524;2024-01-16T02:33:21;94998.34;;;5.40;100.00
53390;BME280;39288;42.970;1.524;2024-01-16T02:34:22;94997.38;;;5.36;100.00
53390;BME280;39288;42.970;1.524;2024-01-16T02:35:22;94989.44;;;5.36;100.00
53390;BME280;39288;42.970;1.524;2024-01-16T02:36:22;94989.84;;;5.24;100.00
53390;BME280;39288;42.970;1.524;2024-01-16T02:37:23;94987.31;;;5.14;100.00
53390;BME280;39288;42.970;1.524;2024-01-16T02:38:23;94986.97;;;5.20;100.00
53390;BME280;39288;42.970;1.524;2024-01-16T02:39:24;94981.13;;;5.24;100.00
53390;BME280;39288;42.970;1.524;2024-01-16T02:40:25;94985.34;;;5.25;100.00
53390;BME280;39288;42.970;1.524;2024-01-16T02:41:25;94982.44;;;5.26;100.00
53390;BME280;39288;42.970;1.524;2024-01-16T02:42:26;94983.78;;;5.24;100.00
53390;BME280;39288;42.970;1.524;2024-01-16T02:43:26;94982.75;;;5.19;100.00
53390;BME280;39288;42.970;1.524;2024-01-16T02:44:27;94979.66;;;4.60;100.00
53390;BME280;39288;42.970;1.524;2024-01-16T02:45:27;94985.38;;;4.43;100.00
53390;BME280;39288;42.970;1.524;2024-01-16T02:46:27;94983.50;;;4.49;100.00
53390;BME280;39288;42.970;1.524;2024-01-16T02:47:28;94980.06;;;4.77;100.00
53390;BME280;39288;42.970;1.524;2024-01-16T02:48:28;94980.22;;;4.86;100.00
53390;BME280;39288;42.970;1.524;2024-01-16T02:49:29;94977.22;;;4.97;100.00
53390;BME280;39288;42.970;1.524;2024-01-16T02:50:32;94975.34;;;5.22;100.00
53390;BME280;39288;42.970;1.524;2024-01-16T02:51:32;94973.66;;;5.31;100.00
53390;BME280;39288;42.970;1.524;2024-01-16T02:52:33;94979.22;;;5.05;100.00
53390;BME280;39288;42.970;1.524;2024-01-16T02:53:33;94966.38;;;4.99;100.00
53390;BME280;39288;42.970;1.524;2024-01-16T02:54:33;94970.25;;;5.06;100.00
53390;BME280;39288;42.970;1.524;2024-01-16T02:55:34;94971.75;;;5.12;100.00
53390;BME280;39288;42.970;1.524;2024-01-16T02:56:34;94966.06;;;5.00;100.00
53390;BME280;39288;42.970;1.524;2024-01-16T02:57:35;94976.63;;;5.00;100.00
53390;BME280;39288;42.970;1.524;2024-01-16T02:58:36;94969.06;;;4.94;100.00
53390;BME280;39288;42.970;1.524;2024-01-16T02:59:37;94978.41;;;4.81;100.00
53390;BME280;39288;42.970;1.524;2024-01-16T03:00:37;94972.50;;;4.94;100.00
53390;BME280;39288;42.970;1.524;2024-01-16T03:01:37;94968.28;;;5.17;100.00
53390;BME280;39288;42.970;1.524;2024-01-16T03:02:38;94968.72;;;5.24;100.00
53390;BME280;39288;42.970;1.524;2024-01-16T03:03:39;94969.63;;;5.38;100.00
53390;BME280;39288;42.970;1.524;2024-01-16T03:04:39;94966.91;;;5.43;100.00
53390;BME280;39288;42.970;1.524;2024-01-16T03:05:40;94964.53;;;5.42;100.00
53390;BME280;39288;42.970;1.524;2024-01-16T03:06:40;94972.84;;;5.54;100.00
53390;BME280;39288;42.970;1.524;2024-01-16T03:07:41;94979.72;;;5.31;100.00
53390;BME280;39288;42.970;1.524;2024-01-16T03:08:41;94971.66;;;4.99;100.00
53390;BME280;39288;42.970;1.524;2024-01-16T03:09:42;94971.00;;;5.31;100.00
53390;BME280;39288;42.970;1.524;2024-01-16T03:10:42;94971.59;;;5.28;100.00
53390;BME280;39288;42.970;1.524;2024-01-16T03:11:42;94968.75;;;5.43;100.00
53390;BME280;39288;42.970;1.524;2024-01-16T03:12:43;94957.44;;;4.95;100.00
53390;BME280;39288;42.970;1.524;2024-01-16T03:13:43;94970.06;;;4.74;100.00
53390;BME280;39288;42.970;1.524;2024-01-16T03:14:44;94967.59;;;4.82;100.00
53390;BME280;39288;42.970;1.524;2024-01-16T03:15:45;94954.94;;;5.08;100.00
53390;BME280;39288;42.970;1.524;2024-01-16T03:16:46;94959.53;;;5.40;100.00
53390;BME280;39288;42.970;1.524;2024-01-16T03:17:47;94967.88;;;5.29;100.00
53390;BME280;39288;42.970;1.524;2024-01-16T03:18:47;94964.25;;;5.43;100.00
53390;BME280;39288;42.970;1.524;2024-01-16T03:19:48;94962.16;;;5.64;100.00
53390;BME280;39288;42.970;1.524;2024-01-16T03:20:48;94954.44;;;5.86;100.00
53390;BME280;39288;42.970;1.524;2024-01-16T03:21:48;94967.50;;;5.16;100.00
53390;BME280;39288;42.970;1.524;2024-01-16T03:22:49;94962.41;;;4.72;100.00
53390;BME280;39288;42.970;1.524;2024-01-16T03:23:50;94957.47;;;4.66;100.00
53390;BME280;39288;42.970;1.524;2024-01-16T03:24:50;94963.53;;;4.66;100.00
53390;BME280;39288;42.970;1.524;2024-01-16T03:25:51;94964.22;;;4.77;100.00
53390;BME280;39288;42.970;1.524;2024-01-16T03:26:52;94965.13;;;4.91;100.00
53390;BME280;39288;42.970;1.524;2024-01-16T03:27:52;94959.81;;;4.96;100.00
53390;BME280;39288;42.970;1.524;2024-01-16T03:28:52;94965.25;;;5.05;100.00
53390;BME280;39288;42.970;1.524;2024-01-16T03:29:53;94975.69;;;5.15;100.00
53390;BME280;39288;42.970;1.524;2024-01-16T03:30:53;94969.50;;;5.25;100.00
53390;BME280;39288;42.970;1.524;2024-01-16T03:31:54;94959.00;;;5.19;100.00
53390;BME280;39288;42.970;1.524;2024-01-16T03:32:54;94962.66;;;5.00;100.00
53390;BME280;39288;42.970;1.524;2024-01-16T03:33:54;94961.66;;;4.96;100.00
53390;BME280;39288;42.970;1.524;2024-01-16T03:34:55;94953.44;;;4.73;100.00
53390;BME280;39288;42.970;1.524;2024-01-16T03:35:55;94953.88;;;4.80;100.00
53390;BME280;39288;42.970;1.524;2024-01-16T03:36:56;94955.25;;;4.78;100.00
53390;BME280;39288;42.970;1.524;2024-01-16T03:37:56;94947.28;;;4.83;100.00
53390;BME280;39288;42.970;1.524;2024-01-16T03:38:56;94960.56;;;4.73;100.00
53390;BME280;39288;42.970;1.524;2024-01-16T03:39:57;94963.00;;;4.93;100.00
53390;BME280;39288;42.970;1.524;2024-01-16T03:40:57;94967.09;;;5.04;100.00
53390;BME280;39288;42.970;1.524;2024-01-16T03:41:58;94967.38;;;5.03;100.00
53390;BME280;39288;42.970;1.524;2024-01-16T03:42:58;94966.03;;;5.05;100.00
53390;BME280;39288;42.970;1.524;2024-01-16T03:43:59;94954.47;;;5.01;100.00
53390;BME280;39288;42.970;1.524;2024-01-16T03:44:59;94959.81;;;4.96;100.00
53390;BME280;39288;42.970;1.524;2024-01-16T03:46:00;94967.13;;;4.99;100.00
53390;BME280;39288;42.970;1.524;2024-01-16T03:47:00;94957.72;;;4.93;100.00
53390;BME280;39288;42.970;1.524;2024-01-16T03:48:01;94961.38;;;4.97;100.00
53390;BME280;39288;42.970;1.524;2024-01-16T03:49:03;94961.31;;;5.02;100.00
53390;BME280;39288;42.970;1.524;2024-01-16T03:50:04;94960.69;;;5.10;100.00
53390;BME280;39288;42.970;1.524;2024-01-16T03:51:04;94954.19;;;5.27;100.00
53390;BME280;39288;42.970;1.524;2024-01-16T03:52:06;94960.41;;;5.36;100.00
53390;BME280;39288;42.970;1.524;2024-01-16T03:53:07;94955.28;;;5.20;100.00
53390;BME280;39288;42.970;1.524;2024-01-16T03:54:08;94945.28;;;4.99;100.00
53390;BME280;39288;42.970;1.524;2024-01-16T03:55:09;94952.72;;;4.68;100.00
53390;BME280;39288;42.970;1.524;2024-01-16T03:56:09;94945.91;;;4.62;100.00
53390;BME280;39288;42.970;1.524;2024-01-16T03:57:10;94952.31;;;4.79;100.00
53390;BME280;39288;42.970;1.524;2024-01-16T03:58:10;94948.84;;;4.84;100.00
53390;BME280;39288;42.970;1.524;2024-01-16T03:59:10;94958.03;;;4.63;100.00
53390;BME280;39288;42.970;1.524;2024-01-16T04:00:11;94954.22;;;4.74;100.00
53390;BME280;39288;42.970;1.524;2024-01-16T04:01:12;94964.25;;;4.72;100.00
53390;BME280;39288;42.970;1.524;2024-01-16T04:02:13;94969.81;;;4.70;100.00
53390;BME280;39288;42.970;1.524;2024-01-16T04:03:13;94944.81;;;4.68;100.00
53390;BME280;39288;42.970;1.524;2024-01-16T04:04:15;94968.94;;;4.80;100.00
53390;BME280;39288;42.970;1.524;2024-01-16T04:05:15;94955.84;;;4.70;100.00
53390;BME280;39288;42.970;1.524;2024-01-16T04:06:16;94962.09;;;4.79;100.00
53390;BME280;39288;42.970;1.524;2024-01-16T04:07:17;94960.47;;;4.83;100.00
53390;BME280;39288;42.970;1.524;2024-01-16T04:08:18;94956.66;;;4.94;100.00
53390;BME280;39288;42.970;1.524;2024-01-16T04:09:18;94959.63;;;4.88;100.00
53390;BME280;39288;42.970;1.524;2024-01-16T04:10:19;94952.41;;;4.69;100.00
53390;BME280;39288;42.970;1.524;2024-01-16T04:11:19;94961.19;;;4.65;100.00
53390;BME280;39288;42.970;1.524;2024-01-16T04:12:20;94953.16;;;4.75;100.00
53390;BME280;39288;42.970;1.524;2024-01-16T04:13:20;94957.38;;;4.76;100.00
53390;BME280;39288;42.970;1.524;2024-01-16T04:14:20;94954.38;;;4.88;100.00
53390;BME280;39288;42.970;1.524;2024-01-16T04:15:21;94961.94;;;4.94;100.00
53390;BME280;39288;42.970;1.524;2024-01-16T04:16:22;94956.38;;;4.96;100.00
53390;BME280;39288;42.970;1.524;2024-01-16T04:17:22;94958.47;;;4.70;100.00
53390;BME280;39288;42.970;1.524;2024-01-16T04:18:23;94955.84;;;4.70;100.00
53390;BME280;39288;42.970;1.524;2024-01-16T04:19:23;94963.66;;;4.80;100.00
53390;BME280;39288;42.970;1.524;2024-01-16T04:20:23;94968.38;;;4.83;100.00
53390;BME280;39288;42.970;1.524;2024-01-16T04:21:24;94962.72;;;4.95;100.00
53390;BME280;39288;42.970;1.524;2024-01-16T04:22:24;94949.69;;;5.03;100.00
53390;BME280;39288;42.970;1.524;2024-01-16T04:23:24;94958.63;;;5.07;100.00
53390;BME280;39288;42.970;1.524;2024-01-16T04:24:25;94960.19;;;5.08;100.00
53390;BME280;39288;42.970;1.524;2024-01-16T04:25:25;94960.75;;;5.05;100.00
53390;BME280;39288;42.970;1.524;2024-01-16T04:26:26;94962.22;;;5.16;100.00
53390;BME280;39288;42.970;1.524;2024-01-16T04:27:26;94957.22;;;5.15;100.00
53390;BME280;39288;42.970;1.524;2024-01-16T04:28:27;94959.84;;;5.15;100.00
53390;BME280;39288;42.970;1.524;2024-01-16T04:29:27;94962.66;;;5.24;100.00
53390;BME280;39288;42.970;1.524;2024-01-16T04:30:28;94961.06;;;5.23;100.00
53390;BME280;39288;42.970;1.524;2024-01-16T04:31:28;94956.88;;;5.22;100.00
53390;BME280;39288;42.970;1.524;2024-01-16T04:32:28;94956.34;;;5.19;100.00
53390;BME280;39288;42.970;1.524;2024-01-16T04:33:29;94963.00;;;5.17;100.00
53390;BME280;39288;42.970;1.524;2024-01-16T04:34:29;94957.72;;;5.17;100.00
53390;BME280;39288;42.970;1.524;2024-01-16T04:35:30;94956.47;;;5.09;100.00
53390;BME280;39288;42.970;1.524;2024-01-16T04:36:30;94966.28;;;5.09;100.00
53390;BME280;39288;42.970;1.524;2024-01-16T04:37:30;94959.84;;;5.15;100.00
53390;BME280;39288;42.970;1.524;2024-01-16T04:38:31;94962.22;;;5.16;100.00
53390;BME280;39288;42.970;1.524;2024-01-16T04:39:31;94969.06;;;5.17;100.00
53390;BME280;39288;42.970;1.524;2024-01-16T04:40:32;94966.91;;;5.19;100.00
53390;BME280;39288;42.970;1.524;2024-01-16T04:41:32;94966.59;;;5.02;100.00
53390;BME280;39288;42.970;1.524;2024-01-16T04:42:32;94965.59;;;4.98;100.00
53390;BME280;39288;42.970;1.524;2024-01-16T04:43:34;94963.53;;;4.66;100.00
53390;BME280;39288;42.970;1.524;2024-01-16T04:44:34;94966.53;;;4.55;100.00
53390;BME280;39288;42.970;1.524;2024-01-16T04:45:34;94959.75;;;4.49;100.00
53390;BME280;39288;42.970;1.524;2024-01-16T04:46:35;94969.78;;;4.47;100.00
53390;BME280;39288;42.970;1.524;2024-01-16T04:47:35;94978.25;;;4.72;100.00
53390;BME280;39288;42.970;1.524;2024-01-16T04:48:35;94977.63;;;4.80;100.00
53390;BME280;39288;42.970;1.524;2024-01-16T04:49:36;94981.44;;;4.98;100.00
53390;BME280;39288;42.970;1.524;2024-01-16T04:50:36;94976.72;;;5.19;100.00
53390;BME280;39288;42.970;1.524;2024-01-16T04:51:37;94975.53;;;5.06;100.00
53390;BME280;39288;42.970;1.524;2024-01-16T04:52:37;94982.50;;;4.97;100.00
53390;BME280;39288;42.970;1.524;2024-01-16T04:53:37;94981.97;;;4.95;100.00
53390;BME280;39288;42.970;1.524;2024-01-16T04:54:38;94984.78;;;5.04;100.00
53390;BME280;39288;42.970;1.524;2024-01-16T04:55:38;94985.56;;;5.04;100.00
53390;BME280;39288;42.970;1.524;2024-01-16T04:56:39;94982.69;;;5.01;100.00
53390;BME280;39288;42.970;1.524;2024-01-16T04:57:39;94985.84;;;5.03;100.00
53390;BME280;39288;42.970;1.524;2024-01-16T04:58:39;94980.75;;;5.11;100.00
53390;BME280;39288;42.970;1.524;2024-01-16T04:59:40;94975.94;;;5.18;100.00
53390;BME280;39288;42.970;1.524;2024-01-16T05:00:40;94984.28;;;5.26;100.00
53390;BME280;39288;42.970;1.524;2024-01-16T05:01:41;94982.09;;;5.33;100.00
53390;BME280;39288;42.970;1.524;2024-01-16T05:02:41;94976.28;;;5.31;100.00
53390;BME280;39288;42.970;1.524;2024-01-16T05:03:41;94984.72;;;5.33;100.00
53390;BME280;39288;42.970;1.524;2024-01-16T05:04:42;94985.78;;;5.32;100.00
53390;BME280;39288;42.970;1.524;2024-01-16T05:05:42;94984.44;;;5.34;100.00
53390;BME280;39288;42.970;1.524;2024-01-16T05:06:43;94982.50;;;5.40;100.00
53390;BME280;39288;42.970;1.524;2024-01-16T05:07:43;94984.84;;;5.46;100.00
53390;BME280;39288;42.970;1.524;2024-01-16T05:08:44;94982.19;;;5.46;100.00
53390;BME280;39288;42.970;1.524;2024-01-16T05:09:45;94992.69;;;5.51;100.00
53390;BME280;39288;42.970;1.524;2024-01-16T05:10:45;94983.97;;;5.51;100.00
53390;BME280;39288;42.970;1.524;2024-01-16T05:11:45;94979.28;;;5.48;100.00
53390;BME280;39288;42.970;1.524;2024-01-16T05:12:46;94985.63;;;5.47;100.00
53390;BME280;39288;42.970;1.524;2024-01-16T05:13:46;94982.19;;;5.46;100.00
53390;BME280;39288;42.970;1.524;2024-01-16T05:14:47;94990.03;;;5.51;100.00
53390;BME280;39288;42.970;1.524;2024-01-16T05:15:47;94981.00;;;5.57;100.00
53390;BME280;39288;42.970;1.524;2024-01-16T05:16:48;94986.28;;;5.57;100.00
53390;BME280;39288;42.970;1.524;2024-01-16T05:17:48;94974.19;;;5.51;100.00
53390;BME280;39288;42.970;1.524;2024-01-16T05:18:48;94975.56;;;5.49;100.00
53390;BME280;39288;42.970;1.524;2024-01-16T05:19:49;94976.00;;;5.56;100.00
53390;BME280;39288;42.970;1.524;2024-01-16T05:20:49;94973.28;;;5.61;100.00
53390;BME280;39288;42.970;1.524;2024-01-16T05:21:50;94973.28;;;5.61;100.00